Time;durP1;ratioP1;P1;durP2;ratioP2;P2;SDS_P1;SDS_P2;PMS_P1;PMS_P2;Temp;Humidity;BMP_temperature;BMP_pressure;BME280_temperature;BME280_humidity;BME280_pressure;Samples;Min_cycle;Max_cycle;Signal;HPM_P1;HPM_P2
2023/03/16 00:00:45;;;;;;;5.33;4.83;;;;;;;;;;4987588;28;20184;-72
2023/03/16 00:03:10;;;;;;;8.10;4.20;;;;;;;;;;4991244;28;20176;-72
2023/03/16 00:05:36;;;;;;;8.47;4.70;;;;;;;;;;4994800;28;20198;-72
2023/03/16 00:08:01;;;;;;;8.00;4.57;;;;;;;;;;4994859;28;20247;-71
2023/03/16 00:10:26;;;;;;;6.37;4.93;;;;;;;;;;4987676;28;20678;-71
2023/03/16 00:12:55;;;;;;;6.83;4.83;;;;;;;;;;4985884;28;20567;-71
2023/03/16 00:15:21;;;;;;;6.97;4.47;;;;;;;;;;4995935;28;20189;-72
2023/03/16 00:17:47;;;;;;;7.40;5.03;;;;;;;;;;4993814;28;20601;-72
2023/03/16 00:20:16;;;;;;;6.73;4.63;;;;;;;;;;4995989;28;20222;-72
2023/03/16 00:22:42;;;;;;;5.90;3.80;;;;;;;;;;4994617;28;20192;-72
2023/03/16 00:25:08;;;;;;;9.40;4.90;;;;;;;;;;4994986;28;20191;-72
2023/03/16 00:27:33;;;;;;;6.10;4.43;;;;;;;;;;4990741;28;20290;-72
2023/03/16 00:29:58;;;;;;;6.00;3.77;;;;;;;;;;4983470;28;20246;-72
2023/03/16 00:32:28;;;;;;;7.87;5.10;;;;;;;;;;4989265;28;20257;-72
2023/03/16 00:34:53;;;;;;;4.33;3.93;;;;;;;;;;4993811;28;20192;-72
2023/03/16 00:37:19;;;;;;;7.73;5.07;;;;;;;;;;4994415;28;20211;-72
2023/03/16 00:39:45;;;;;;;6.93;5.10;;;;;;;;;;4994669;28;20183;-72
2023/03/16 00:42:11;;;;;;;6.03;4.73;;;;;;;;;;4995195;28;20555;-72
2023/03/16 00:44:36;;;;;;;6.23;4.53;;;;;;;;;;4988944;28;20199;-72
2023/03/16 00:47:08;;;;;;;5.63;4.43;;;;;;;;;;4991315;23;20234;-68
2023/03/16 00:49:34;;;;;;;7.87;4.43;;;;;;;;;;4990537;28;20183;-68
2023/03/16 00:52:03;;;;;;;21.27;5.27;;;;;;;;;;5003144;28;20258;-70
2023/03/16 00:54:31;;;;;;;8.50;5.17;;;;;;;;;;5001871;28;20183;-70
2023/03/16 00:56:56;;;;;;;7.33;5.03;;;;;;;;;;5001923;28;20210;-68
2023/03/16 00:59:22;;;;;;;7.30;4.97;;;;;;;;;;4993097;28;20191;-69
2023/03/16 01:01:47;;;;;;;6.40;4.47;;;;;;;;;;4986154;28;20660;-69
2023/03/16 01:04:12;;;;;;;5.63;4.50;;;;;;;;;;4989172;28;20676;-69
2023/03/16 01:06:38;;;;;;;5.70;4.07;;;;;;;;;;4980433;28;20241;-69
2023/03/16 01:09:04;;;;;;;5.40;4.90;;;;;;;;;;4997859;28;20578;-69
2023/03/16 01:11:32;;;;;;;7.17;4.87;;;;;;;;;;4996633;28;20560;-69
2023/03/16 01:13:58;;;;;;;8.40;4.80;;;;;;;;;;5002196;28;20184;-69
2023/03/16 01:16:23;;;;;;;5.83;4.83;;;;;;;;;;5010703;28;20229;-70
2023/03/16 01:18:48;;;;;;;6.83;5.17;;;;;;;;;;5010565;28;20629;-70
2023/03/16 01:21:14;;;;;;;6.83;4.67;;;;;;;;;;5012559;28;20555;-70
2023/03/16 01:23:39;;;;;;;5.80;4.60;;;;;;;;;;5006543;28;20607;-70
2023/03/16 01:26:05;;;;;;;6.30;4.40;;;;;;;;;;5009975;28;20170;-68
2023/03/16 01:28:31;;;;;;;7.17;4.90;;;;;;;;;;5000564;28;20218;-70
2023/03/16 01:31:01;;;;;;;7.03;5.77;;;;;;;;;;5007386;28;20175;-69
2023/03/16 01:33:26;;;;;;;8.93;5.07;;;;;;;;;;4996531;28;20179;-70
2023/03/16 01:35:52;;;;;;;5.17;4.60;;;;;;;;;;5000446;28;20672;-69
2023/03/16 01:38:18;;;;;;;7.40;5.10;;;;;;;;;;5010276;28;20264;-70
2023/03/16 01:40:43;;;;;;;7.13;4.53;;;;;;;;;;5008817;28;20187;-69
2023/03/16 01:43:10;;;;;;;6.53;4.63;;;;;;;;;;5003170;28;20584;-69
2023/03/16 01:45:53;;;;;;;8.67;4.53;;;;;;;;;;5008968;28;20257;-71
2023/03/16 01:48:20;;;;;;;7.47;4.93;;;;;;;;;;5007951;28;20293;-69
2023/03/16 01:50:46;;;;;;;6.67;4.87;;;;;;;;;;4995061;28;20186;-69
2023/03/16 01:53:11;;;;;;;7.00;5.20;;;;;;;;;;5003021;28;20175;-69
2023/03/16 01:55:36;;;;;;;6.97;4.60;;;;;;;;;;5001959;28;20658;-69
2023/03/16 01:58:01;;;;;;;5.80;3.97;;;;;;;;;;5004417;28;20210;-69
2023/03/16 02:00:30;;;;;;;9.73;6.47;;;;;;;;;;5005708;28;20278;-70
2023/03/16 02:02:58;;;;;;;8.33;5.40;;;;;;;;;;5000901;28;20849;-70
2023/03/16 02:05:23;;;;;;;5.60;4.83;;;;;;;;;;5009838;28;20249;-70
2023/03/16 02:07:50;;;;;;;5.83;4.73;;;;;;;;;;5008224;28;20692;-70
2023/03/16 02:10:17;;;;;;;8.10;5.43;;;;;;;;;;5009057;28;20171;-69
2023/03/16 02:12:43;;;;;;;6.47;4.80;;;;;;;;;;5008622;28;20231;-70
2023/03/16 02:15:10;;;;;;;7.37;5.20;;;;;;;;;;5006471;28;20172;-69
2023/03/16 02:17:35;;;;;;;10.00;5.57;;;;;;;;;;5003597;28;20257;-70
2023/03/16 02:20:00;;;;;;;5.77;4.50;;;;;;;;;;4999246;28;20198;-69
2023/03/16 02:22:26;;;;;;;5.50;4.83;;;;;;;;;;5002024;28;20179;-69
2023/03/16 02:24:52;;;;;;;9.60;5.37;;;;;;;;;;5007897;28;20210;-70
2023/03/16 02:27:28;;;;;;;6.73;4.90;;;;;;;;;;5002966;28;20272;-70
2023/03/16 02:29:53;;;;;;;9.97;4.93;;;;;;;;;;4996744;28;20180;-71
2023/03/16 02:32:19;;;;;;;6.40;4.73;;;;;;;;;;5000493;28;20174;-72
2023/03/16 02:34:44;;;;;;;6.87;5.33;;;;;;;;;;5002904;28;20209;-69
2023/03/16 02:37:10;;;;;;;7.37;5.47;;;;;;;;;;5011210;28;20199;-70
2023/03/16 02:39:36;;;;;;;8.40;4.63;;;;;;;;;;5007806;28;20287;-69
2023/03/16 02:42:01;;;;;;;7.70;4.87;;;;;;;;;;5002685;28;20264;-70
2023/03/16 02:44:32;;;;;;;10.37;5.27;;;;;;;;;;5004430;28;20183;-70
2023/03/16 02:47:00;;;;;;;8.33;5.33;;;;;;;;;;5002638;28;20271;-70
2023/03/16 02:49:28;;;;;;;8.63;4.93;;;;;;;;;;5007250;28;20657;-69
2023/03/16 02:51:53;;;;;;;8.10;5.63;;;;;;;;;;5004154;28;20180;-70
2023/03/16 02:54:18;;;;;;;6.77;4.97;;;;;;;;;;5003375;28;20178;-70
2023/03/16 02:56:44;;;;;;;7.63;4.77;;;;;;;;;;5007728;28;20179;-69
2023/03/16 02:59:09;;;;;;;7.90;5.20;;;;;;;;;;5006405;28;20186;-69
2023/03/16 03:01:35;;;;;;;8.63;5.37;;;;;;;;;;5008687;28;20182;-69
2023/03/16 03:04:00;;;;;;;7.03;4.80;;;;;;;;;;5008390;28;20186;-69
2023/03/16 03:06:26;;;;;;;8.17;5.13;;;;;;;;;;5000319;28;20270;-69
2023/03/16 03:08:51;;;;;;;7.33;5.00;;;;;;;;;;4996360;28;20687;-70
2023/03/16 03:11:18;;;;;;;6.17;4.63;;;;;;;;;;5006938;28;20653;-70
2023/03/16 03:13:43;;;;;;;9.60;4.80;;;;;;;;;;5006823;28;20183;-69
2023/03/16 03:16:09;;;;;;;6.50;5.17;;;;;;;;;;5003263;28;20179;-69
2023/03/16 03:18:34;;;;;;;5.87;4.40;;;;;;;;;;4999082;28;20202;-71
2023/03/16 03:20:59;;;;;;;8.23;4.67;;;;;;;;;;5009000;28;20179;-69
2023/03/16 03:23:24;;;;;;;6.77;4.70;;;;;;;;;;5007302;28;20209;-69
2023/03/16 03:25:50;;;;;;;7.43;4.43;;;;;;;;;;5008491;28;20187;-68
2023/03/16 03:28:15;;;;;;;6.90;4.47;;;;;;;;;;5009669;28;20203;-69
2023/03/16 03:30:40;;;;;;;7.47;4.70;;;;;;;;;;5002902;28;20217;-70
2023/03/16 03:33:05;;;;;;;5.20;4.70;;;;;;;;;;5003031;28;21029;-69
2023/03/16 03:35:31;;;;;;;5.93;4.70;;;;;;;;;;5003776;28;20195;-69
2023/03/16 03:37:56;;;;;;;7.60;5.00;;;;;;;;;;5004230;28;20198;-70
2023/03/16 03:40:21;;;;;;;5.17;4.60;;;;;;;;;;5009704;28;20408;-70
2023/03/16 03:42:47;;;;;;;8.23;5.47;;;;;;;;;;5008529;28;20187;-69
2023/03/16 03:45:12;;;;;;;6.83;4.50;;;;;;;;;;5005052;28;20579;-69
2023/03/16 03:47:38;;;;;;;5.97;4.47;;;;;;;;;;5006126;28;21023;-70
2023/03/16 03:50:04;;;;;;;6.73;4.50;;;;;;;;;;5006402;28;20667;-70
2023/03/16 03:52:29;;;;;;;8.43;4.20;;;;;;;;;;5004463;28;20183;-70
2023/03/16 03:54:54;;;;;;;6.63;4.20;;;;;;;;;;5006457;28;20718;-70
2023/03/16 03:57:20;;;;;;;5.93;4.23;;;;;;;;;;5000942;28;20290;-70
2023/03/16 03:59:45;;;;;;;8.60;4.43;;;;;;;;;;5007845;28;20179;-69
2023/03/16 04:02:10;;;;;;;6.37;4.00;;;;;;;;;;4997742;28;20183;-69
2023/03/16 04:04:36;;;;;;;7.47;4.63;;;;;;;;;;5007462;28;20183;-69
2023/03/16 04:07:01;;;;;;;7.53;4.60;;;;;;;;;;5007750;28;20285;-69
2023/03/16 04:09:26;;;;;;;7.37;4.27;;;;;;;;;;5007200;28;20674;-70
2023/03/16 04:11:52;;;;;;;8.30;5.30;;;;;;;;;;5004732;28;20950;-70
2023/03/16 04:14:17;;;;;;;8.07;4.80;;;;;;;;;;4999348;28;20175;-69
2023/03/16 04:16:43;;;;;;;7.20;4.77;;;;;;;;;;5007642;28;20669;-69
2023/03/16 04:19:08;;;;;;;7.97;5.57;;;;;;;;;;5006892;28;20826;-69
2023/03/16 04:21:33;;;;;;;6.03;4.80;;;;;;;;;;5008403;28;20222;-69
2023/03/16 04:24:00;;;;;;;6.23;4.60;;;;;;;;;;5008732;28;20184;-68
2023/03/16 04:26:25;;;;;;;7.83;4.97;;;;;;;;;;5011464;28;20620;-69
2023/03/16 04:28:51;;;;;;;5.33;4.63;;;;;;;;;;5003458;28;20223;-69
2023/03/16 04:31:16;;;;;;;7.70;4.47;;;;;;;;;;4997173;28;20641;-69
2023/03/16 04:33:42;;;;;;;5.50;4.27;;;;;;;;;;5006754;28;20186;-69
2023/03/16 04:36:07;;;;;;;6.43;4.87;;;;;;;;;;5007911;28;20190;-69
2023/03/16 04:38:33;;;;;;;8.50;4.67;;;;;;;;;;5006550;28;20299;-70
2023/03/16 04:40:59;;;;;;;6.07;4.40;;;;;;;;;;5014454;28;20183;-70
2023/03/16 04:43:24;;;;;;;7.40;4.67;;;;;;;;;;5017404;28;20666;-70
2023/03/16 04:45:49;;;;;;;9.53;6.73;;;;;;;;;;5012812;28;20551;-71
2023/03/16 04:48:14;;;;;;;6.57;4.87;;;;;;;;;;5001957;28;20565;-69
2023/03/16 04:50:40;;;;;;;6.07;4.77;;;;;;;;;;5004170;28;20663;-69
2023/03/16 04:53:05;;;;;;;6.03;4.30;;;;;;;;;;5000726;28;20176;-70
2023/03/16 04:55:30;;;;;;;6.37;4.77;;;;;;;;;;5007624;28;20183;-69
2023/03/16 04:57:56;;;;;;;6.70;4.57;;;;;;;;;;5013463;28;20286;-69
2023/03/16 05:00:22;;;;;;;6.60;4.33;;;;;;;;;;5003813;28;20547;-69
2023/03/16 05:02:48;;;;;;;6.20;4.30;;;;;;;;;;5005695;28;20179;-69
2023/03/16 05:05:14;;;;;;;7.07;4.27;;;;;;;;;;5012433;28;20184;-69
2023/03/16 05:07:40;;;;;;;5.17;3.80;;;;;;;;;;5011405;28;20210;-69
2023/03/16 05:10:06;;;;;;;7.00;3.80;;;;;;;;;;5007497;28;20191;-69
2023/03/16 05:12:31;;;;;;;8.60;4.40;;;;;;;;;;5003646;28;20258;-70
2023/03/16 05:14:57;;;;;;;8.13;4.20;;;;;;;;;;5003765;28;20207;-70
2023/03/16 05:17:22;;;;;;;6.77;4.37;;;;;;;;;;4997979;28;20219;-70
2023/03/16 05:19:47;;;;;;;8.57;4.37;;;;;;;;;;5007499;28;20246;-70
2023/03/16 05:22:12;;;;;;;7.40;4.73;;;;;;;;;;5006560;28;20707;-70
2023/03/16 05:24:37;;;;;;;5.63;3.97;;;;;;;;;;5010787;28;20279;-70
2023/03/16 05:27:03;;;;;;;6.40;4.03;;;;;;;;;;5001549;28;20203;-69
2023/03/16 05:29:30;;;;;;;7.03;4.53;;;;;;;;;;4994078;28;20186;-70
2023/03/16 05:31:55;;;;;;;7.80;4.77;;;;;;;;;;5005000;28;20187;-69
2023/03/16 05:34:20;;;;;;;7.17;3.90;;;;;;;;;;5001556;28;20633;-69
2023/03/16 05:36:45;;;;;;;5.50;3.73;;;;;;;;;;5005843;28;20695;-70
2023/03/16 05:39:12;;;;;;;5.50;3.73;;;;;;;;;;5010721;28;20229;-69
2023/03/16 05:41:37;;;;;;;6.47;4.10;;;;;;;;;;5008253;28;20187;-69
2023/03/16 05:44:03;;;;;;;6.33;3.90;;;;;;;;;;5012024;28;20262;-69
2023/03/16 05:46:28;;;;;;;8.50;4.87;;;;;;;;;;5009175;28;20551;-69
2023/03/16 05:48:53;;;;;;;5.70;4.17;;;;;;;;;;5001009;28;20207;-69
2023/03/16 05:51:18;;;;;;;7.93;4.10;;;;;;;;;;5007566;28;20179;-70
2023/03/16 05:53:45;;;;;;;5.43;4.70;;;;;;;;;;5010525;28;20188;-70
2023/03/16 05:56:11;;;;;;;7.93;4.60;;;;;;;;;;5000790;28;20171;-70
2023/03/16 05:58:36;;;;;;;6.87;4.20;;;;;;;;;;5010764;28;20249;-70
2023/03/16 06:01:01;;;;;;;8.93;4.90;;;;;;;;;;5002715;28;20535;-70
2023/03/16 06:03:26;;;;;;;6.13;4.70;;;;;;;;;;5010721;28;20554;-70
2023/03/16 06:05:52;;;;;;;6.57;4.30;;;;;;;;;;5008214;28;20210;-70
2023/03/16 06:08:17;;;;;;;10.03;4.63;;;;;;;;;;5012160;28;20707;-70
2023/03/16 06:10:43;;;;;;;5.13;3.27;;;;;;;;;;5009575;28;20605;-70
2023/03/16 06:13:08;;;;;;;6.87;3.93;;;;;;;;;;5005545;28;20265;-70
2023/03/16 06:15:33;;;;;;;8.00;4.20;;;;;;;;;;5009288;28;20179;-70
2023/03/16 06:17:58;;;;;;;7.37;4.17;;;;;;;;;;5009608;28;20198;-70
2023/03/16 06:20:24;;;;;;;6.33;3.97;;;;;;;;;;5002180;28;20814;-70
2023/03/16 06:22:49;;;;;;;7.03;4.17;;;;;;;;;;5008866;28;20187;-70
2023/03/16 06:25:15;;;;;;;6.07;3.60;;;;;;;;;;5007023;28;20187;-70
2023/03/16 06:27:40;;;;;;;7.53;3.80;;;;;;;;;;5008623;28;20262;-71
2023/03/16 06:30:07;;;;;;;5.53;3.43;;;;;;;;;;5002721;28;20187;-69
2023/03/16 06:32:33;;;;;;;5.00;3.37;;;;;;;;;;5003390;28;20175;-69
2023/03/16 06:35:00;;;;;;;6.60;2.90;;;;;;;;;;4999228;28;20190;-69
2023/03/16 06:37:26;;;;;;;7.33;3.40;;;;;;;;;;5005313;28;20207;-69
2023/03/16 06:39:51;;;;;;;6.07;3.87;;;;;;;;;;5007973;28;20193;-70
2023/03/16 06:42:16;;;;;;;4.30;3.67;;;;;;;;;;5006709;28;20182;-69
2023/03/16 06:44:42;;;;;;;6.30;3.50;;;;;;;;;;5004795;28;20262;-71
2023/03/16 06:49:36;;;;;;;5.43;3.20;;;;;;;;;;5008275;28;20246;-73
2023/03/16 06:52:02;;;;;;;7.37;3.50;;;;;;;;;;5009714;28;20207;-73
2023/03/16 06:54:27;;;;;;;5.73;3.57;;;;;;;;;;5010669;28;20182;-74
2023/03/16 06:56:52;;;;;;;4.80;3.20;;;;;;;;;;5007636;28;20193;-74
2023/03/16 06:59:18;;;;;;;3.57;3.23;;;;;;;;;;5007021;28;20710;-74
2023/03/16 07:01:43;;;;;;;5.43;3.57;;;;;;;;;;4998429;28;20186;-74
2023/03/16 07:04:09;;;;;;;6.23;3.73;;;;;;;;;;5009297;28;20268;-74
2023/03/16 07:06:34;;;;;;;4.60;3.30;;;;;;;;;;5015626;28;20206;-74
2023/03/16 07:09:00;;;;;;;7.03;3.27;;;;;;;;;;5018535;28;20285;-74
2023/03/16 07:11:25;;;;;;;6.93;3.27;;;;;;;;;;5009213;28;20186;-74
2023/03/16 07:13:50;;;;;;;3.33;2.80;;;;;;;;;;5027607;28;20178;-73
2023/03/16 07:16:16;;;;;;;4.27;3.40;;;;;;;;;;5010396;28;20179;-73
2023/03/16 07:18:43;;;;;;;4.13;3.00;;;;;;;;;;5022446;28;20201;-73
2023/03/16 07:21:08;;;;;;;4.27;2.90;;;;;;;;;;5009718;28;20175;-72
2023/03/16 07:23:33;;;;;;;7.20;3.20;;;;;;;;;;5011789;28;20293;-74
2023/03/16 07:25:59;;;;;;;3.67;2.73;;;;;;;;;;5002089;28;20210;-74
2023/03/16 07:28:26;;;;;;;6.20;3.27;;;;;;;;;;5010648;28;20206;-74
2023/03/16 07:30:51;;;;;;;8.77;3.10;;;;;;;;;;5009552;28;20222;-73
2023/03/16 07:33:17;;;;;;;6.13;3.30;;;;;;;;;;5012176;28;20214;-74
2023/03/16 07:35:42;;;;;;;5.07;3.20;;;;;;;;;;5010816;28;20175;-74
2023/03/16 07:38:10;;;;;;;3.07;2.50;;;;;;;;;;5013714;28;20210;-73
2023/03/16 07:40:35;;;;;;;6.93;3.67;;;;;;;;;;5009683;28;20270;-73
2023/03/16 07:43:00;;;;;;;5.27;2.80;;;;;;;;;;5014799;28;20174;-73
2023/03/16 07:45:26;;;;;;;4.40;2.73;;;;;;;;;;5014570;28;20195;-73
2023/03/16 07:47:51;;;;;;;4.07;2.83;;;;;;;;;;5015337;28;20217;-74
2023/03/16 07:50:18;;;;;;;7.43;3.53;;;;;;;;;;5015419;28;20182;-75
2023/03/16 07:52:44;;;;;;;4.03;2.37;;;;;;;;;;5015001;28;20171;-72
2023/03/16 07:55:10;;;;;;;6.27;2.97;;;;;;;;;;5015284;28;20267;-74
2023/03/16 07:57:35;;;;;;;4.77;2.83;;;;;;;;;;5011984;28;20405;-74
2023/03/16 08:00:04;;;;;;;4.37;3.43;;;;;;;;;;5015176;28;20198;-74
2023/03/16 08:02:30;;;;;;;6.50;2.77;;;;;;;;;;5003123;28;20275;-74
2023/03/16 08:04:55;;;;;;;7.20;3.13;;;;;;;;;;5015429;28;20203;-74
2023/03/16 08:07:20;;;;;;;4.60;2.80;;;;;;;;;;5020077;28;20199;-74
2023/03/16 08:09:45;;;;;;;4.90;2.70;;;;;;;;;;5016900;28;20263;-74
2023/03/16 08:12:11;;;;;;;4.40;2.87;;;;;;;;;;5014208;28;20611;-74
2023/03/16 08:14:36;;;;;;;2.63;2.30;;;;;;;;;;5014663;28;20183;-73
2023/03/16 08:17:02;;;;;;;5.80;2.60;;;;;;;;;;5001828;28;20637;-73
2023/03/16 08:19:28;;;;;;;3.03;2.37;;;;;;;;;;5004398;28;20193;-73
2023/03/16 08:21:53;;;;;;;4.80;2.37;;;;;;;;;;5012536;28;20187;-74
2023/03/16 08:24:19;;;;;;;3.70;2.27;;;;;;;;;;5005410;28;20186;-73
2023/03/16 08:26:44;;;;;;;3.07;2.50;;;;;;;;;;5011632;28;20190;-73
2023/03/16 08:29:09;;;;;;;6.27;2.97;;;;;;;;;;5011695;28;20203;-73
2023/03/16 08:31:35;;;;;;;3.40;2.37;;;;;;;;;;5012707;28;20186;-73
2023/03/16 08:34:00;;;;;;;3.53;2.30;;;;;;;;;;5012468;28;20183;-73
2023/03/16 08:36:27;;;;;;;4.93;2.53;;;;;;;;;;5010361;28;20198;-73
2023/03/16 08:38:53;;;;;;;4.73;2.67;;;;;;;;;;5009283;28;20294;-73
2023/03/16 08:41:19;;;;;;;4.57;2.57;;;;;;;;;;5011742;28;20194;-73
2023/03/16 08:43:45;;;;;;;2.83;1.97;;;;;;;;;;5013892;28;20179;-73
2023/03/16 08:46:12;;;;;;;3.20;2.13;;;;;;;;;;5012745;28;20740;-73
2023/03/16 08:48:39;;;;;;;4.67;2.47;;;;;;;;;;5006682;28;20229;-73
2023/03/16 08:51:08;;;;;;;5.27;2.23;;;;;;;;;;5010596;28;20729;-74
2023/03/16 08:53:33;;;;;;;2.27;1.90;;;;;;;;;;5009519;28;20186;-73
2023/03/16 08:56:03;;;;;;;5.47;2.80;;;;;;;;;;5004440;28;20179;-73
2023/03/16 08:58:29;;;;;;;5.27;1.97;;;;;;;;;;5004159;28;20660;-74
2023/03/16 09:00:54;;;;;;;5.37;2.20;;;;;;;;;;5001648;28;20237;-75
2023/03/16 09:03:20;;;;;;;2.87;2.00;;;;;;;;;;5011650;28;20234;-73
2023/03/16 09:05:45;;;;;;;8.77;2.40;;;;;;;;;;5010692;28;20211;-73
2023/03/16 09:08:11;;;;;;;3.57;2.57;;;;;;;;;;5007258;28;20207;-73
2023/03/16 09:10:36;;;;;;;5.87;2.30;;;;;;;;;;5005960;28;20226;-73
2023/03/16 09:13:02;;;;;;;4.13;2.10;;;;;;;;;;5007630;28;20181;-73
2023/03/16 09:15:27;;;;;;;3.80;2.63;;;;;;;;;;5002804;28;20266;-73
2023/03/16 09:17:53;;;;;;;3.00;2.40;;;;;;;;;;5000633;28;20579;-73
2023/03/16 09:20:19;;;;;;;6.47;2.90;;;;;;;;;;4997213;28;20175;-73
2023/03/16 09:22:45;;;;;;;3.97;1.87;;;;;;;;;;5008639;28;20175;-73
2023/03/16 09:25:10;;;;;;;3.93;2.03;;;;;;;;;;5009411;28;20233;-73
2023/03/16 09:27:35;;;;;;;4.23;2.03;;;;;;;;;;5006134;28;20209;-73
2023/03/16 09:30:02;;;;;;;4.27;2.40;;;;;;;;;;5005676;28;20175;-73
2023/03/16 09:32:27;;;;;;;3.40;2.60;;;;;;;;;;5014065;28;20557;-73
2023/03/16 09:34:53;;;;;;;5.47;3.40;;;;;;;;;;5008662;28;20190;-73
2023/03/16 09:37:18;;;;;;;3.27;2.40;;;;;;;;;;5008602;28;20211;-73
2023/03/16 09:39:44;;;;;;;3.10;1.97;;;;;;;;;;5003408;28;20868;-73
2023/03/16 09:42:16;;;;;;;8.47;2.70;;;;;;;;;;5002782;28;20658;-73
2023/03/16 09:44:49;;;;;;;6.57;2.27;;;;;;;;;;5009347;28;20563;-73
2023/03/16 09:47:15;;;;;;;4.57;2.17;;;;;;;;;;5008297;28;20215;-73
2023/03/16 09:49:47;;;;;;;3.63;3.07;;;;;;;;;;5008831;28;20320;-73
2023/03/16 09:52:29;;;;;;;5.47;2.57;;;;;;;;;;5005783;28;20175;-73
2023/03/16 09:55:05;;;;;;;3.27;1.90;;;;;;;;;;5001921;28;20872;-73
2023/03/16 09:57:36;;;;;;;4.30;2.50;;;;;;;;;;5005282;28;20282;-72
2023/03/16 10:00:15;;;;;;;5.70;2.60;;;;;;;;;;4995496;28;20749;-73
2023/03/16 10:02:59;;;;;;;4.67;2.47;;;;;;;;;;5004509;28;20174;-73
2023/03/16 10:05:26;;;;;;;2.80;2.10;;;;;;;;;;5009215;28;20183;-74
2023/03/16 10:07:57;;;;;;;2.83;2.10;;;;;;;;;;5003891;28;20720;-72
2023/03/16 10:10:37;;;;;;;3.60;2.20;;;;;;;;;;5007817;28;20190;-73
2023/03/16 10:13:04;;;;;;;3.90;2.23;;;;;;;;;;5010575;28;20175;-73
2023/03/16 10:15:32;;;;;;;4.60;2.60;;;;;;;;;;5009641;28;20270;-73
2023/03/16 10:18:15;;;;;;;2.83;1.83;;;;;;;;;;5008966;28;20717;-73
2023/03/16 10:20:40;;;;;;;3.83;2.50;;;;;;;;;;5009789;28;20186;-73
2023/03/16 10:23:15;;;;;;;3.33;2.40;;;;;;;;;;5005347;28;20179;-72
2023/03/16 10:25:48;;;;;;;4.50;1.97;;;;;;;;;;5006514;28;20178;-73
2023/03/16 10:28:17;;;;;;;3.13;2.40;;;;;;;;;;5003239;28;20211;-73
2023/03/16 10:30:43;;;;;;;3.10;2.20;;;;;;;;;;5007187;28;20179;-73
2023/03/16 10:33:12;;;;;;;4.80;1.83;;;;;;;;;;5004549;28;21546;-74
2023/03/16 10:35:37;;;;;;;5.75;2.22;;;;;;;;;;5001625;28;20183;-73
2023/03/16 10:38:02;;;;;;;4.70;1.80;;;;;;;;;;5009440;28;20191;-73
2023/03/16 10:40:32;;;;;;;3.70;2.20;;;;;;;;;;5002499;28;20785;-74
2023/03/16 10:43:03;;;;;;;2.95;1.85;;;;;;;;;;4998861;28;20195;-74
2023/03/16 10:45:30;;;;;;;6.18;2.65;;;;;;;;;;5011592;28;20249;-74
2023/03/16 10:48:12;;;;;;;4.03;1.87;;;;;;;;;;5003944;28;20214;-74
2023/03/16 10:50:38;;;;;;;4.80;1.77;;;;;;;;;;5003163;28;20270;-73
2023/03/16 10:53:03;;;;;;;3.88;1.67;;;;;;;;;;5003561;28;21381;-74
2023/03/16 10:55:31;;;;;;;4.38;2.42;;;;;;;;;;5009537;28;20291;-73
2023/03/16 10:57:56;;;;;;;2.40;1.50;;;;;;;;;;5005243;28;20340;-74
2023/03/16 11:00:25;;;;;;;2.28;1.83;;;;;;;;;;5001407;28;20637;-73
2023/03/16 11:02:53;;;;;;;4.85;1.48;;;;;;;;;;5007373;28;20269;-73
2023/03/16 11:05:18;;;;;;;5.45;1.80;;;;;;;;;;5008643;28;20175;-73
2023/03/16 11:07:47;;;;;;;2.22;1.35;;;;;;;;;;5009860;28;20296;-74
2023/03/16 11:10:32;;;;;;;2.65;1.70;;;;;;;;;;5004541;28;20225;-73
2023/03/16 11:13:17;;;;;;;4.13;1.53;;;;;;;;;;5010421;28;20261;-74
2023/03/16 11:15:56;;;;;;;3.25;1.75;;;;;;;;;;5007353;28;20229;-73
2023/03/16 11:18:25;;;;;;;3.85;1.58;;;;;;;;;;5006922;28;20211;-73
2023/03/16 11:20:51;;;;;;;3.55;1.10;;;;;;;;;;5003682;28;20179;-73
2023/03/16 11:23:28;;;;;;;2.05;1.35;;;;;;;;;;5004383;28;20539;-73
2023/03/16 11:25:55;;;;;;;1.50;1.30;;;;;;;;;;5008027;28;20179;-73
2023/03/16 11:28:31;;;;;;;2.03;1.17;;;;;;;;;;5011055;28;20240;-73
2023/03/16 11:31:00;;;;;;;3.35;1.55;;;;;;;;;;5010229;28;20232;-73
2023/03/16 11:33:26;;;;;;;4.63;1.80;;;;;;;;;;5009883;28;20193;-73
2023/03/16 11:35:57;;;;;;;2.72;1.40;;;;;;;;;;5015310;28;20187;-73
2023/03/16 11:38:39;;;;;;;3.10;1.95;;;;;;;;;;5007950;28;20195;-73
2023/03/16 11:41:09;;;;;;;4.10;1.85;;;;;;;;;;5002039;28;20614;-73
2023/03/16 11:43:34;;;;;;;5.10;1.70;;;;;;;;;;5008657;28;20183;-73
2023/03/16 11:46:09;;;;;;;4.63;1.77;;;;;;;;;;5012131;28;20181;-73
2023/03/16 11:48:48;;;;;;;4.00;1.40;;;;;;;;;;5002588;28;20288;-73
2023/03/16 11:51:28;;;;;;;1.95;1.30;;;;;;;;;;5002120;28;20175;-73
2023/03/16 11:54:03;;;;;;;2.38;1.15;;;;;;;;;;5008295;28;20588;-73
2023/03/16 11:56:33;;;;;;;3.65;1.60;;;;;;;;;;5002222;28;20228;-73
2023/03/16 11:59:29;;;;;;;3.00;1.38;;;;;;;;;;5012629;28;20202;-73
2023/03/16 12:02:09;;;;;;;2.45;1.30;;;;;;;;;;5013400;28;20202;-73
2023/03/16 12:04:54;;;;;;;5.53;1.35;;;;;;;;;;5014872;28;20180;-73
2023/03/16 12:07:34;;;;;;;4.13;1.45;;;;;;;;;;5015921;28;20676;-72
2023/03/16 12:10:00;;;;;;;3.45;1.45;;;;;;;;;;5015789;28;20175;-74
2023/03/16 12:12:52;;;;;;;4.47;1.45;;;;;;;;;;5015411;28;20194;-75
2023/03/16 12:15:23;;;;;;;2.15;1.35;;;;;;;;;;4992963;28;20663;-73
2023/03/16 12:17:52;;;;;;;4.72;1.23;;;;;;;;;;5015354;28;20748;-74
2023/03/16 12:20:50;;;;;;;2.30;0.95;;;;;;;;;;5015384;28;20182;-74
2023/03/16 12:23:22;;;;;;;3.75;1.23;;;;;;;;;;4992262;28;20195;-73
2023/03/16 12:25:48;;;;;;;1.85;1.33;;;;;;;;;;5014655;28;20171;-73
2023/03/16 12:28:17;;;;;;;2.90;1.10;;;;;;;;;;5015270;28;20325;-73
2023/03/16 12:30:49;;;;;;;4.65;1.20;;;;;;;;;;5014452;28;20260;-73
2023/03/16 12:33:34;;;;;;;1.80;1.17;;;;;;;;;;5002674;28;20186;-73
2023/03/16 12:36:00;;;;;;;3.83;1.40;;;;;;;;;;5012966;28;20177;-73
2023/03/16 12:38:34;;;;;;;2.78;1.15;;;;;;;;;;5015187;28;20195;-73
2023/03/16 12:41:09;;;;;;;3.28;1.40;;;;;;;;;;5012814;28;20190;-73
2023/03/16 12:43:53;;;;;;;1.42;0.82;;;;;;;;;;5005150;28;20209;-74
2023/03/16 12:46:23;;;;;;;2.35;1.35;;;;;;;;;;5005231;28;20178;-73
2023/03/16 12:48:52;;;;;;;2.22;1.25;;;;;;;;;;5016977;23;20270;-68
2023/03/16 12:51:17;;;;;;;3.17;1.10;;;;;;;;;;5007653;28;20179;-69
2023/03/16 12:53:45;;;;;;;2.30;1.02;;;;;;;;;;5009847;28;20607;-69
2023/03/16 12:56:25;;;;;;;7.22;1.02;;;;;;;;;;5013178;28;20179;-68
2023/03/16 12:58:54;;;;;;;1.63;1.08;;;;;;;;;;5001034;28;20203;-68
2023/03/16 13:01:27;;;;;;;3.63;1.30;;;;;;;;;;5001439;28;20174;-69
2023/03/16 13:03:57;;;;;;;3.28;1.40;;;;;;;;;;5005256;28;20180;-69
2023/03/16 13:06:23;;;;;;;2.75;1.02;;;;;;;;;;5005629;28;20187;-68
2023/03/16 13:08:55;;;;;;;2.13;1.17;;;;;;;;;;5001153;28;20212;-68
2023/03/16 13:11:20;;;;;;;1.25;1.00;;;;;;;;;;4999274;28;20638;-68
2023/03/16 13:13:47;;;;;;;3.58;1.20;;;;;;;;;;5006785;28;20190;-68
2023/03/16 13:16:22;;;;;;;3.08;1.00;;;;;;;;;;5007816;28;20720;-69
2023/03/16 13:18:47;;;;;;;2.95;0.88;;;;;;;;;;5002399;28;20697;-68
2023/03/16 13:21:33;;;;;;;1.33;1.00;;;;;;;;;;5008501;28;20198;-68
2023/03/16 13:24:00;;;;;;;4.65;1.35;;;;;;;;;;4997870;28;20183;-68
2023/03/16 13:26:39;;;;;;;4.38;1.00;;;;;;;;;;5003283;28;20183;-68
2023/03/16 13:29:13;;;;;;;2.80;1.42;;;;;;;;;;5008244;28;20626;-68
2023/03/16 13:31:40;;;;;;;1.95;0.90;;;;;;;;;;4998942;28;20202;-68
2023/03/16 13:34:06;;;;;;;1.65;1.10;;;;;;;;;;5003910;28;20183;-68
2023/03/16 13:36:33;;;;;;;2.78;1.00;;;;;;;;;;5002138;28;20814;-68
2023/03/16 13:39:13;;;;;;;2.22;1.45;;;;;;;;;;4994893;28;20230;-68
2023/03/16 13:41:39;;;;;;;4.50;1.10;;;;;;;;;;5000009;28;20678;-68
2023/03/16 13:44:04;;;;;;;3.33;1.42;;;;;;;;;;5006452;28;20167;-68
2023/03/16 13:46:29;;;;;;;1.38;1.10;;;;;;;;;;5008428;28;20189;-68
2023/03/16 13:48:56;;;;;;;2.20;1.20;;;;;;;;;;5002063;28;20227;-68
2023/03/16 13:51:22;;;;;;;2.20;1.15;;;;;;;;;;5005155;28;20186;-67
2023/03/16 13:53:48;;;;;;;1.75;1.27;;;;;;;;;;5008060;28;20178;-68
2023/03/16 13:56:25;;;;;;;3.20;0.90;;;;;;;;;;5007882;28;20618;-68
2023/03/16 13:58:51;;;;;;;2.65;0.85;;;;;;;;;;5002817;28;20581;-68
2023/03/16 14:01:23;;;;;;;3.22;1.17;;;;;;;;;;5001549;28;20179;-67
2023/03/16 14:03:49;;;;;;;1.88;0.93;;;;;;;;;;5002169;28;20188;-68
2023/03/16 14:06:21;;;;;;;2.85;1.38;;;;;;;;;;5002686;28;20245;-68
2023/03/16 14:08:49;;;;;;;3.67;1.25;;;;;;;;;;5005175;28;20576;-68
2023/03/16 14:11:14;;;;;;;1.35;0.82;;;;;;;;;;5007950;28;20171;-68
2023/03/16 14:13:40;;;;;;;4.10;1.00;;;;;;;;;;5004605;28;20190;-68
2023/03/16 14:16:09;;;;;;;0.70;0.70;;;;;;;;;;5009788;28;20183;-68
2023/03/16 14:18:36;;;;;;;1.58;0.80;;;;;;;;;;5005086;28;20631;-68
2023/03/16 14:21:05;;;;;;;2.20;1.25;;;;;;;;;;5012614;28;20213;-68
2023/03/16 14:23:33;;;;;;;1.90;0.80;;;;;;;;;;5008787;28;20274;-68
2023/03/16 14:25:58;;;;;;;2.42;1.20;;;;;;;;;;5000287;28;20190;-68
2023/03/16 14:28:29;;;;;;;1.90;1.45;;;;;;;;;;5004248;28;20206;-68
2023/03/16 14:31:01;;;;;;;2.92;1.38;;;;;;;;;;5003724;28;20175;-68
2023/03/16 14:33:26;;;;;;;2.55;0.88;;;;;;;;;;5008297;28;20178;-68
2023/03/16 14:35:55;;;;;;;1.83;0.90;;;;;;;;;;5008257;28;20814;-69
2023/03/16 14:38:21;;;;;;;3.67;1.05;;;;;;;;;;5005203;28;20203;-68
2023/03/16 14:40:57;;;;;;;1.95;0.70;;;;;;;;;;5002442;28;20991;-69
2023/03/16 14:43:32;;;;;;;1.95;0.88;;;;;;;;;;4998187;28;20226;-68
2023/03/16 14:45:59;;;;;;;0.93;0.70;;;;;;;;;;5006425;28;20344;-68
2023/03/16 14:48:24;;;;;;;2.45;0.82;;;;;;;;;;4996940;28;20688;-68